sensor_id;sensor_type;location;lat;lon;timestamp;pressure;altitude;pressure_sealevel;temperature;humidity
16834;BME280;8533;48.426;10.868;2022-08-19T00:02:05;95786.48;;;18.17;100.00
16834;BME280;8533;48.426;10.868;2022-08-19T00:04:34;95782.05;;;18.15;100.00
16834;BME280;8533;48.426;10.868;2022-08-19T00:07:05;95783.83;;;18.17;100.00
16834;BME280;8533;48.426;10.868;2022-08-19T00:09:33;95786.97;;;18.19;100.00
16834;BME280;8533;48.426;10.868;2022-08-19T00:12:01;95791.77;;;18.17;100.00
16834;BME280;8533;48.426;10.868;2022-08-19T00:14:29;95795.45;;;18.18;100.00
16834;BME280;8533;48.426;10.868;2022-08-19T00:16:57;95788.66;;;18.15;100.00
16834;BME280;8533;48.426;10.868;2022-08-19T00:19:26;95781.51;;;18.15;100.00
16834;BME280;8533;48.426;10.868;2022-08-19T00:21:54;95785.64;;;18.19;100.00
16834;BME280;8533;48.426;10.868;2022-08-19T00:24:22;95795.40;;;18.21;100.00
16834;BME280;8533;48.426;10.868;2022-08-19T00:26:51;95790.34;;;18.22;100.00
16834;BME280;8533;48.426;10.868;2022-08-19T00:29:20;95789.80;;;18.22;100.00
16834;BME280;8533;48.426;10.868;2022-08-19T00:31:48;95780.00;;;18.23;100.00
16834;BME280;8533;48.426;10.868;2022-08-19T00:34:18;95786.97;;;18.19;100.00
16834;BME280;8533;48.426;10.868;2022-08-19T00:36:46;95781.67;;;18.19;100.00
16834;BME280;8533;48.426;10.868;2022-08-19T00:39:16;95782.41;;;18.22;100.00
16834;BME280;8533;48.426;10.868;2022-08-19T00:41:45;95780.59;;;18.20;100.00
16834;BME280;8533;48.426;10.868;2022-08-19T00:44:16;95784.32;;;18.19;100.00
16834;BME280;8533;48.426;10.868;2022-08-19T00:46:48;95787.75;;;18.19;100.00
16834;BME280;8533;48.426;10.868;2022-08-19T00:49:39;95786.19;;;18.18;100.00
16834;BME280;8533;48.426;10.868;2022-08-19T00:52:12;95783.29;;;18.17;100.00
16834;BME280;8533;48.426;10.868;2022-08-19T00:54:38;95772.00;;;18.14;100.00
16834;BME280;8533;48.426;10.868;2022-08-19T00:57:09;95766.75;;;18.12;100.00
16834;BME280;8533;48.426;10.868;2022-08-19T00:59:40;95765.73;;;18.10;100.00
16834;BME280;8533;48.426;10.868;2022-08-19T01:02:09;95765.23;;;18.08;100.00
16834;BME280;8533;48.426;10.868;2022-08-19T01:04:36;95765.80;;;18.08;100.00
16834;BME280;8533;48.426;10.868;2022-08-19T01:07:04;95758.22;;;18.04;100.00
16834;BME280;8533;48.426;10.868;2022-08-19T01:09:32;95762.86;;;17.98;100.00
16834;BME280;8533;48.426;10.868;2022-08-19T01:11:59;95766.58;;;17.97;100.00
16834;BME280;8533;48.426;10.868;2022-08-19T01:14:27;95764.81;;;17.92;100.00
16834;BME280;8533;48.426;10.868;2022-08-19T01:16:55;95770.97;;;17.90;100.00
16834;BME280;8533;48.426;10.868;2022-08-19T01:19:26;95778.55;;;17.83;100.00
16834;BME280;8533;48.426;10.868;2022-08-19T01:22:03;95780.63;;;17.73;100.00
16834;BME280;8533;48.426;10.868;2022-08-19T01:24:29;95779.89;;;17.70;100.00
16834;BME280;8533;48.426;10.868;2022-08-19T01:26:57;95780.51;;;17.67;100.00
16834;BME280;8533;48.426;10.868;2022-08-19T01:29:25;95783.45;;;17.65;100.00
16834;BME280;8533;48.426;10.868;2022-08-19T01:31:52;95781.34;;;17.65;100.00
16834;BME280;8533;48.426;10.868;2022-08-19T01:34:20;95782.37;;;17.66;100.00
16834;BME280;8533;48.426;10.868;2022-08-19T01:36:48;95776.34;;;17.63;100.00
16834;BME280;8533;48.426;10.868;2022-08-19T01:39:21;95781.34;;;17.65;100.00
16834;BME280;8533;48.426;10.868;2022-08-19T01:41:49;95779.48;;;17.65;100.00
16834;BME280;8533;48.426;10.868;2022-08-19T01:44:16;95782.37;;;17.66;100.00
16834;BME280;8533;48.426;10.868;2022-08-19T01:46:47;95781.59;;;17.66;100.00
16834;BME280;8533;48.426;10.868;2022-08-19T01:49:18;95785.27;;;17.67;100.00
16834;BME280;8533;48.426;10.868;2022-08-19T01:51:47;95788.49;;;17.64;100.00
16834;BME280;8533;48.426;10.868;2022-08-19T01:54:17;95788.78;;;17.63;100.00
16834;BME280;8533;48.426;10.868;2022-08-19T01:56:45;95787.48;;;17.60;100.00
16834;BME280;8533;48.426;10.868;2022-08-19T01:59:14;95783.49;;;17.63;100.00
16834;BME280;8533;48.426;10.868;2022-08-19T02:01:43;95781.38;;;17.62;100.00
16834;BME280;8533;48.426;10.868;2022-08-19T02:04:10;95785.35;;;17.62;100.00
16834;BME280;8533;48.426;10.868;2022-08-19T02:06:38;95797.50;;;17.63;100.00
16834;BME280;8533;48.426;10.868;2022-08-19T02:09:07;95794.86;;;17.63;100.00
16834;BME280;8533;48.426;10.868;2022-08-19T02:11:36;95798.05;;;17.60;100.00
16834;BME280;8533;48.426;10.868;2022-08-19T02:14:07;95801.81;;;17.59;100.00
16834;BME280;8533;48.426;10.868;2022-08-19T02:16:36;95801.06;;;17.56;100.00
16834;BME280;8533;48.426;10.868;2022-08-19T02:19:04;95793.17;;;17.53;100.00
16834;BME280;8533;48.426;10.868;2022-08-19T02:21:32;95788.17;;;17.52;100.00
16834;BME280;8533;48.426;10.868;2022-08-19T02:24:00;95782.89;;;17.52;100.00
16834;BME280;8533;48.426;10.868;2022-08-19T02:26:27;95782.42;;;17.50;100.00
16834;BME280;8533;48.426;10.868;2022-08-19T02:28:55;95790.94;;;17.47;100.00
16834;BME280;8533;48.426;10.868;2022-08-19T02:31:24;95788.79;;;17.49;100.00
16834;BME280;8533;48.426;10.868;2022-08-19T02:33:55;95785.66;;;17.47;100.00
16834;BME280;8533;48.426;10.868;2022-08-19T02:36:23;95779.29;;;17.48;100.00
16834;BME280;8533;48.426;10.868;2022-08-19T02:38:50;95771.65;;;17.46;100.00
16834;BME280;8533;48.426;10.868;2022-08-19T02:41:21;95775.36;;;17.45;100.00
16834;BME280;8533;48.426;10.868;2022-08-19T02:43:49;95785.41;;;17.46;100.00
16834;BME280;8533;48.426;10.868;2022-08-19T02:46:22;95779.83;;;17.47;100.00
16834;BME280;8533;48.426;10.868;2022-08-19T02:48:52;95776.64;;;17.48;100.00
16834;BME280;8533;48.426;10.868;2022-08-19T02:51:22;95784.58;;;17.48;100.00
16834;BME280;8533;48.426;10.868;2022-08-19T02:53:51;95788.30;;;17.47;100.00
16834;BME280;8533;48.426;10.868;2022-08-19T02:56:19;95791.48;;;17.46;100.00
16834;BME280;8533;48.426;10.868;2022-08-19T02:58:46;95785.90;;;17.48;100.00
16834;BME280;8533;48.426;10.868;2022-08-19T03:01:25;95791.97;;;17.48;100.00
16834;BME280;8533;48.426;10.868;2022-08-19T03:03:53;95801.48;;;17.49;100.00
16834;BME280;8533;48.426;10.868;2022-08-19T03:06:21;95799.38;;;17.49;100.00
16834;BME280;8533;48.426;10.868;2022-08-19T03:08:50;95801.89;;;17.43;100.00
16834;BME280;8533;48.426;10.868;2022-08-19T03:11:21;95799.78;;;17.42;100.00
16834;BME280;8533;48.426;10.868;2022-08-19T03:13:48;95792.38;;;17.42;100.00
16834;BME280;8533;48.426;10.868;2022-08-19T03:16:19;95791.30;;;17.43;100.00
16834;BME280;8533;48.426;10.868;2022-08-19T03:18:46;95786.02;;;17.43;100.00
16834;BME280;8533;48.426;10.868;2022-08-19T03:21:20;95785.70;;;17.44;100.00
16834;BME280;8533;48.426;10.868;2022-08-19T03:23:47;95782.47;;;17.47;100.00
16834;BME280;8533;48.426;10.868;2022-08-19T03:26:15;95772.39;;;17.49;100.00
16834;BME280;8533;48.426;10.868;2022-08-19T03:28:45;95761.27;;;17.50;100.00
16834;BME280;8533;48.426;10.868;2022-08-19T03:31:15;95770.77;;;17.51;100.00
16834;BME280;8533;48.426;10.868;2022-08-19T03:33:44;95771.31;;;17.50;100.00
16834;BME280;8533;48.426;10.868;2022-08-19T03:36:16;95774.95;;;17.52;100.00
16834;BME280;8533;48.426;10.868;2022-08-19T03:38:48;95772.92;;;17.49;100.00
16834;BME280;8533;48.426;10.868;2022-08-19T03:41:21;95778.21;;;17.49;100.00
16834;BME280;8533;48.426;10.868;2022-08-19T03:43:49;95780.90;;;17.46;100.00
16834;BME280;8533;48.426;10.868;2022-08-19T03:46:20;95785.66;;;17.47;100.00
16834;BME280;8533;48.426;10.868;2022-08-19T03:48:51;95788.05;;;17.46;100.00
16834;BME280;8533;48.426;10.868;2022-08-19T03:51:24;95786.02;;;17.43;100.00
16834;BME280;8533;48.426;10.868;2022-08-19T03:53:54;95786.02;;;17.43;100.00
16834;BME280;8533;48.426;10.868;2022-08-19T03:56:22;95784.73;;;17.40;100.00
16834;BME280;8533;48.426;10.868;2022-08-19T03:58:51;95796.35;;;17.42;100.00
16834;BME280;8533;48.426;10.868;2022-08-19T04:01:21;95795.27;;;17.43;100.00
16834;BME280;8533;48.426;10.868;2022-08-19T04:03:49;95797.84;;;17.45;100.00
16834;BME280;8533;48.426;10.868;2022-08-19T04:06:19;95789.20;;;17.42;100.00
16834;BME280;8533;48.426;10.868;2022-08-19T04:08:49;95793.21;;;17.40;100.00
16834;BME280;8533;48.426;10.868;2022-08-19T04:11:24;95789.49;;;17.41;100.00
16834;BME280;8533;48.426;10.868;2022-08-19T04:13:52;95782.63;;;17.40;100.00
16834;BME280;8533;48.426;10.868;2022-08-19T04:16:22;95781.56;;;17.41;100.00
16834;BME280;8533;48.426;10.868;2022-08-19T04:18:51;95783.91;;;17.42;100.00
16834;BME280;8533;48.426;10.868;2022-08-19T04:21:20;95784.73;;;17.40;100.00
16834;BME280;8533;48.426;10.868;2022-08-19T04:23:49;95772.30;;;17.41;100.00
16834;BME280;8533;48.426;10.868;2022-08-19T04:26:25;95773.63;;;17.41;100.00
16834;BME280;8533;48.426;10.868;2022-08-19T04:28:52;95775.48;;;17.40;100.00
16834;BME280;8533;48.426;10.868;2022-08-19T04:31:26;95772.59;;;17.39;100.00
16834;BME280;8533;48.426;10.868;2022-08-19T04:33:55;95770.20;;;17.40;100.00
16834;BME280;8533;48.426;10.868;2022-08-19T04:36:28;95768.38;;;17.38;100.00
16834;BME280;8533;48.426;10.868;2022-08-19T04:38:59;95776.81;;;17.40;100.00
16834;BME280;8533;48.426;10.868;2022-08-19T04:41:27;95771.56;;;17.38;100.00
16834;BME280;8533;48.426;10.868;2022-08-19T04:44:13;95769.16;;;17.39;100.00
16834;BME280;8533;48.426;10.868;2022-08-19T04:46:42;95776.31;;;17.38;100.00
16834;BME280;8533;48.426;10.868;2022-08-19T04:49:10;95781.06;;;17.39;100.00
16834;BME280;8533;48.426;10.868;2022-08-19T04:51:41;95790.36;;;17.36;100.00
16834;BME280;8533;48.426;10.868;2022-08-19T04:54:09;95795.07;;;17.39;100.00
16834;BME280;8533;48.426;10.868;2022-08-19T04:56:36;95798.75;;;17.41;100.00
16834;BME280;8533;48.426;10.868;2022-08-19T04:59:07;95802.95;;;17.42;100.00
16834;BME280;8533;48.426;10.868;2022-08-19T05:01:34;95815.69;;;17.40;100.00
16834;BME280;8533;48.426;10.868;2022-08-19T05:04:04;95814.12;;;17.39;100.00
16834;BME280;8533;48.426;10.868;2022-08-19T05:06:33;95816.77;;;17.39;100.00
16834;BME280;8533;48.426;10.868;2022-08-19T05:09:04;95815.02;;;17.34;100.00
16834;BME280;8533;48.426;10.868;2022-08-19T05:11:34;95832.91;;;17.37;100.00
16834;BME280;8533;48.426;10.868;2022-08-19T05:14:04;95829.48;;;17.37;100.00
16834;BME280;8533;48.426;10.868;2022-08-19T05:16:34;95838.95;;;17.40;100.00
16834;BME280;8533;48.426;10.868;2022-08-19T05:19:01;95841.59;;;17.40;100.00
16834;BME280;8533;48.426;10.868;2022-08-19T05:21:47;95837.09;;;17.41;100.00
16834;BME280;8533;48.426;10.868;2022-08-19T05:24:32;95826.44;;;17.43;100.00
16834;BME280;8533;48.426;10.868;2022-08-19T05:27:01;95825.56;;;17.48;100.00
16834;BME280;8533;48.426;10.868;2022-08-19T05:29:30;95834.00;;;17.50;100.00
16834;BME280;8533;48.426;10.868;2022-08-19T05:31:58;95830.81;;;17.50;100.00
16834;BME280;8533;48.426;10.868;2022-08-19T05:34:26;95832.43;;;17.49;100.00
16834;BME280;8533;48.426;10.868;2022-08-19T05:36:58;95826.89;;;17.48;100.00
16834;BME280;8533;48.426;10.868;2022-08-19T05:39:29;95834.95;;;17.54;100.00
16834;BME280;8533;48.426;10.868;2022-08-19T05:41:59;95830.70;;;17.55;100.00
16834;BME280;8533;48.426;10.868;2022-08-19T05:44:30;95833.05;;;17.57;100.00
16834;BME280;8533;48.426;10.868;2022-08-19T05:46:59;95831.12;;;17.60;100.00
16834;BME280;8533;48.426;10.868;2022-08-19T05:49:27;95832.19;;;17.62;100.00
16834;BME280;8533;48.426;10.868;2022-08-19T05:51:55;95834.02;;;17.61;100.00
16834;BME280;8533;48.426;10.868;2022-08-19T05:54:24;95830.86;;;17.62;100.00
16834;BME280;8533;48.426;10.868;2022-08-19T05:56:53;95832.69;;;17.61;100.00
16834;BME280;8533;48.426;10.868;2022-08-19T05:59:21;95825.81;;;17.63;100.00
16834;BME280;8533;48.426;10.868;2022-08-19T06:01:51;95828.47;;;17.60;100.00
16834;BME280;8533;48.426;10.868;2022-08-19T06:04:21;95830.05;;;17.61;100.00
16834;BME280;8533;48.426;10.868;2022-08-19T06:06:50;95834.38;;;17.57;100.00
16834;BME280;8533;48.426;10.868;2022-08-19T06:09:20;95828.22;;;17.62;100.00
16834;BME280;8533;48.426;10.868;2022-08-19T06:11:54;95826.08;;;17.61;100.00
16834;BME280;8533;48.426;10.868;2022-08-19T06:14:25;95830.86;;;17.62;100.00
16834;BME280;8533;48.426;10.868;2022-08-19T06:16:52;95827.67;;;17.62;100.00
16834;BME280;8533;48.426;10.868;2022-08-19T06:19:22;95818.42;;;17.62;100.00
16834;BME280;8533;48.426;10.868;2022-08-19T06:21:52;95826.08;;;17.61;100.00
16834;BME280;8533;48.426;10.868;2022-08-19T06:24:23;95824.25;;;17.62;100.00
16834;BME280;8533;48.426;10.868;2022-08-19T06:26:53;95823.70;;;17.62;100.00
16834;BME280;8533;48.426;10.868;2022-08-19T06:29:23;95824.74;;;17.64;100.00
16834;BME280;8533;48.426;10.868;2022-08-19T06:31:54;95828.66;;;17.66;100.00
16834;BME280;8533;48.426;10.868;2022-08-19T06:34:23;95837.84;;;17.69;100.00
16834;BME280;8533;48.426;10.868;2022-08-19T06:36:52;95839.42;;;17.70;100.00
16834;BME280;8533;48.426;10.868;2022-08-19T06:39:28;95847.06;;;17.71;100.00
16834;BME280;8533;48.426;10.868;2022-08-19T06:41:53;95843.34;;;17.72;100.00
16834;BME280;8533;48.426;10.868;2022-08-19T06:44:23;95847.84;;;17.72;100.00
16834;BME280;8533;48.426;10.868;2022-08-19T06:46:58;95853.48;;;17.68;100.00
16834;BME280;8533;48.426;10.868;2022-08-19T06:49:23;95853.14;;;17.72;100.00
16834;BME280;8533;48.426;10.868;2022-08-19T06:51:52;95854.95;;;17.74;100.00
16834;BME280;8533;48.426;10.868;2022-08-19T06:54:21;95859.71;;;17.74;100.00
16834;BME280;8533;48.426;10.868;2022-08-19T06:56:49;95861.03;;;17.74;100.00
16834;BME280;8533;48.426;10.868;2022-08-19T06:59:19;95853.92;;;17.72;100.00
16834;BME280;8533;48.426;10.868;2022-08-19T07:01:49;95859.22;;;17.72;100.00
16834;BME280;8533;48.426;10.868;2022-08-19T07:04:20;95863.97;;;17.73;100.00
16834;BME280;8533;48.426;10.868;2022-08-19T07:06:49;95863.44;;;17.73;100.00
16834;BME280;8533;48.426;10.868;2022-08-19T07:09:18;95855.50;;;17.73;100.00
16834;BME280;8533;48.426;10.868;2022-08-19T07:11:48;95847.80;;;17.74;100.00
16834;BME280;8533;48.426;10.868;2022-08-19T07:14:18;95843.52;;;17.76;100.00
16834;BME280;8533;48.426;10.868;2022-08-19T07:16:49;95841.11;;;17.77;100.00
16834;BME280;8533;48.426;10.868;2022-08-19T07:19:18;95834.45;;;17.79;100.00
16834;BME280;8533;48.426;10.868;2022-08-19T07:21:49;95843.91;;;17.83;100.00
16834;BME280;8533;48.426;10.868;2022-08-19T07:24:20;95844.25;;;17.79;100.00
16834;BME280;8533;48.426;10.868;2022-08-19T07:26:51;95844.25;;;17.79;100.00
16834;BME280;8533;48.426;10.868;2022-08-19T07:29:19;95851.41;;;17.78;100.00
16834;BME280;8533;48.426;10.868;2022-08-19T07:31:50;95852.73;;;17.78;100.00
16834;BME280;8533;48.426;10.868;2022-08-19T07:34:19;95847.48;;;17.76;100.00
16834;BME280;8533;48.426;10.868;2022-08-19T07:36:50;95846.66;;;17.78;100.00
16834;BME280;8533;48.426;10.868;2022-08-19T07:39:22;95850.58;;;17.80;100.00
16834;BME280;8533;48.426;10.868;2022-08-19T07:41:50;95847.93;;;17.80;100.00
16834;BME280;8533;48.426;10.868;2022-08-19T07:44:20;95848.77;;;17.78;100.00
16834;BME280;8533;48.426;10.868;2022-08-19T07:46:50;95850.09;;;17.78;100.00
16834;BME280;8533;48.426;10.868;2022-08-19T07:49:19;95843.72;;;17.79;100.00
16834;BME280;8533;48.426;10.868;2022-08-19T07:51:50;95850.00;;;17.83;100.00
16834;BME280;8533;48.426;10.868;2022-08-19T07:54:19;95855.28;;;17.83;100.00
16834;BME280;8533;48.426;10.868;2022-08-19T07:56:47;95857.07;;;17.85;100.00
16834;BME280;8533;48.426;10.868;2022-08-19T07:59:18;95855.45;;;17.87;100.00
16834;BME280;8533;48.426;10.868;2022-08-19T08:01:47;95850.70;;;17.86;100.00
16834;BME280;8533;48.426;10.868;2022-08-19T08:04:17;95852.86;;;17.84;100.00
16834;BME280;8533;48.426;10.868;2022-08-19T08:07:04;95852.15;;;17.81;100.00
16834;BME280;8533;48.426;10.868;2022-08-19T08:09:51;95853.27;;;17.78;100.00
16834;BME280;8533;48.426;10.868;2022-08-19T08:12:32;95855.04;;;17.82;100.00
16834;BME280;8533;48.426;10.868;2022-08-19T08:14:57;95856.61;;;17.83;100.00
16834;BME280;8533;48.426;10.868;2022-08-19T08:17:26;95848.05;;;17.86;100.00
16834;BME280;8533;48.426;10.868;2022-08-19T08:19:54;95847.81;;;17.85;100.00
16834;BME280;8533;48.426;10.868;2022-08-19T08:22:23;95838.84;;;17.84;100.00
16834;BME280;8533;48.426;10.868;2022-08-19T08:25:16;95841.44;;;17.86;100.00
16834;BME280;8533;48.426;10.868;2022-08-19T08:27:41;95846.48;;;17.85;100.00
16834;BME280;8533;48.426;10.868;2022-08-19T08:30:12;95844.83;;;17.89;100.00
16834;BME280;8533;48.426;10.868;2022-08-19T08:32:41;95846.39;;;17.90;100.00
16834;BME280;8533;48.426;10.868;2022-08-19T08:35:13;95845.08;;;17.90;100.00
16834;BME280;8533;48.426;10.868;2022-08-19T08:37:39;95845.20;;;17.97;100.00
16834;BME280;8533;48.426;10.868;2022-08-19T08:40:26;95849.75;;;17.93;100.00
16834;BME280;8533;48.426;10.868;2022-08-19T08:42:56;95852.69;;;17.92;100.00
16834;BME280;8533;48.426;10.868;2022-08-19T08:45:24;95853.02;;;17.90;100.00
16834;BME280;8533;48.426;10.868;2022-08-19T08:47:53;95857.94;;;17.95;100.00
16834;BME280;8533;48.426;10.868;2022-08-19T08:50:31;95849.50;;;17.92;100.00
16834;BME280;8533;48.426;10.868;2022-08-19T08:52:59;95847.64;;;17.93;100.00
16834;BME280;8533;48.426;10.868;2022-08-19T08:55:28;95848.50;;;17.91;100.00
16834;BME280;8533;48.426;10.868;2022-08-19T08:58:12;95852.06;;;17.98;100.00
16834;BME280;8533;48.426;10.868;2022-08-19T09:00:37;95847.26;;;18.00;100.00
16834;BME280;8533;48.426;10.868;2022-08-19T09:03:15;95853.55;;;18.01;100.00
16834;BME280;8533;48.426;10.868;2022-08-19T09:08:38;95855.81;;;18.08;100.00
16834;BME280;8533;48.426;10.868;2022-08-19T09:11:03;95860.53;;;18.08;100.00
16834;BME280;8533;48.426;10.868;2022-08-19T09:13:54;95861.56;;;18.10;100.00
16834;BME280;8533;48.426;10.868;2022-08-19T09:16:21;95875.71;;;18.05;100.00
16834;BME280;8533;48.426;10.868;2022-08-19T09:18:52;95870.17;;;18.04;100.00
16834;BME280;8533;48.426;10.868;2022-08-19T09:21:21;95873.11;;;18.03;100.00
16834;BME280;8533;48.426;10.868;2022-08-19T09:23:49;95869.14;;;18.03;100.00
16834;BME280;8533;48.426;10.868;2022-08-19T09:26:19;95866.78;;;18.01;100.00
16834;BME280;8533;48.426;10.868;2022-08-19T09:28:49;95866.33;;;17.99;100.00
16834;BME280;8533;48.426;10.868;2022-08-19T09:31:27;95874.80;;;17.99;100.00
16834;BME280;8533;48.426;10.868;2022-08-19T09:33:54;95874.64;;;17.92;100.00
16834;BME280;8533;48.426;10.868;2022-08-19T09:36:26;95871.78;;;17.91;100.00
16834;BME280;8533;48.426;10.868;2022-08-19T09:38:55;95872.91;;;17.88;100.00
16834;BME280;8533;48.426;10.868;2022-08-19T09:41:24;95872.95;;;17.85;100.00
16834;BME280;8533;48.426;10.868;2022-08-19T09:43:53;95871.05;;;17.88;100.00
16834;BME280;8533;48.426;10.868;2022-08-19T09:46:26;95875.59;;;17.85;100.00
16834;BME280;8533;48.426;10.868;2022-08-19T09:48:54;95876.92;;;17.85;100.00
16834;BME280;8533;48.426;10.868;2022-08-19T09:51:24;95879.27;;;17.87;100.00
16834;BME280;8533;48.426;10.868;2022-08-19T09:53:54;95878.73;;;17.87;100.00
16834;BME280;8533;48.426;10.868;2022-08-19T09:56:23;95883.20;;;17.89;100.00
16834;BME280;8533;48.426;10.868;2022-08-19T09:58:51;95881.62;;;17.88;100.00
16834;BME280;8533;48.426;10.868;2022-08-19T10:01:24;95883.20;;;17.89;100.00
16834;BME280;8533;48.426;10.868;2022-08-19T10:03:54;95878.78;;;17.85;100.00
16834;BME280;8533;48.426;10.868;2022-08-19T10:06:27;95882.75;;;17.85;100.00
16834;BME280;8533;48.426;10.868;2022-08-19T10:08:56;95880.59;;;17.87;100.00
16834;BME280;8533;48.426;10.868;2022-08-19T10:11:23;95882.12;;;17.90;100.00
16834;BME280;8533;48.426;10.868;2022-08-19T10:13:51;95883.20;;;17.89;100.00
16834;BME280;8533;48.426;10.868;2022-08-19T10:16:21;95887.17;;;17.89;100.00
16834;BME280;8533;48.426;10.868;2022-08-19T10:18:49;95884.23;;;17.91;100.00
16834;BME280;8533;48.426;10.868;2022-08-19T10:21:20;95889.41;;;17.96;100.00
16834;BME280;8533;48.426;10.868;2022-08-19T10:23:49;95887.83;;;17.95;100.00
16834;BME280;8533;48.426;10.868;2022-08-19T10:26:20;95891.02;;;17.95;100.00
16834;BME280;8533;48.426;10.868;2022-08-19T10:28:48;95889.56;;;17.88;100.00
16834;BME280;8533;48.426;10.868;2022-08-19T10:31:19;95892.26;;;17.86;100.00
16834;BME280;8533;48.426;10.868;2022-08-19T10:33:47;95901.09;;;17.81;100.00
16834;BME280;8533;48.426;10.868;2022-08-19T10:36:18;95901.72;;;17.76;100.00
16834;BME280;8533;48.426;10.868;2022-08-19T10:38:48;95899.39;;;17.74;100.00
16834;BME280;8533;48.426;10.868;2022-08-19T10:41:18;95897.45;;;17.66;100.00
16834;BME280;8533;48.426;10.868;2022-08-19T10:43:46;95893.52;;;17.64;100.00
16834;BME280;8533;48.426;10.868;2022-08-19T10:46:15;95900.50;;;17.57;100.00
16834;BME280;8533;48.426;10.868;2022-08-19T10:48:43;95900.58;;;17.52;100.00
16834;BME280;8533;48.426;10.868;2022-08-19T10:51:11;95894.08;;;17.47;100.00
16834;BME280;8533;48.426;10.868;2022-08-19T10:53:57;95895.20;;;17.43;100.00
16834;BME280;8533;48.426;10.868;2022-08-19T10:56:26;95898.98;;;17.40;100.00
16834;BME280;8533;48.426;10.868;2022-08-19T10:59:13;95900.63;;;17.36;100.00
16834;BME280;8533;48.426;10.868;2022-08-19T11:01:42;95905.70;;;17.35;100.00
16834;BME280;8533;48.426;10.868;2022-08-19T11:04:10;95893.59;;;17.31;100.00
16834;BME280;8533;48.426;10.868;2022-08-19T11:06:43;95895.45;;;17.31;100.00
16834;BME280;8533;48.426;10.868;2022-08-19T11:09:14;95896.81;;;17.28;100.00
16834;BME280;8533;48.426;10.868;2022-08-19T11:11:42;95892.59;;;17.27;100.00
16834;BME280;8533;48.426;10.868;2022-08-19T11:14:12;95904.80;;;17.26;100.00
16834;BME280;8533;48.426;10.868;2022-08-19T11:16:40;95907.20;;;17.25;100.00
16834;BME280;8533;48.426;10.868;2022-08-19T11:19:10;95915.95;;;17.23;100.00
16834;BME280;8533;48.426;10.868;2022-08-19T11:21:42;95919.67;;;17.22;100.00
16834;BME280;8533;48.426;10.868;2022-08-19T11:24:13;95915.20;;;17.20;100.00
16834;BME280;8533;48.426;10.868;2022-08-19T11:26:43;95919.48;;;17.18;100.00
16834;BME280;8533;48.426;10.868;2022-08-19T11:29:12;95923.73;;;17.16;100.00
16834;BME280;8533;48.426;10.868;2022-08-19T11:31:43;95928.67;;;17.21;100.00
16834;BME280;8533;48.426;10.868;2022-08-19T11:34:14;95930.49;;;17.23;100.00
16834;BME280;8533;48.426;10.868;2022-08-19T11:36:44;95934.21;;;17.22;100.00
16834;BME280;8533;48.426;10.868;2022-08-19T11:39:16;95937.14;;;17.20;100.00
16834;BME280;8533;48.426;10.868;2022-08-19T11:41:42;95938.53;;;17.18;100.00
16834;BME280;8533;48.426;10.868;2022-08-19T11:44:09;95941.45;;;17.16;100.00
16834;BME280;8533;48.426;10.868;2022-08-19T11:46:38;95940.17;;;17.13;100.00
16834;BME280;8533;48.426;10.868;2022-08-19T11:49:06;95947.38;;;17.10;100.00
16834;BME280;8533;48.426;10.868;2022-08-19T11:51:37;95947.98;;;17.05;100.00
16834;BME280;8533;48.426;10.868;2022-08-19T11:54:05;95931.63;;;17.03;100.00
16834;BME280;8533;48.426;10.868;2022-08-19T11:56:32;95922.50;;;16.95;100.00
16834;BME280;8533;48.426;10.868;2022-08-19T11:59:01;95918.64;;;16.90;100.00
16834;BME280;8533;48.426;10.868;2022-08-19T12:01:28;95913.85;;;16.92;100.00
16834;BME280;8533;48.426;10.868;2022-08-19T12:03:58;95903.57;;;16.91;100.00
16834;BME280;8533;48.426;10.868;2022-08-19T12:06:28;95906.17;;;16.93;100.00
16834;BME280;8533;48.426;10.868;2022-08-19T12:09:01;95903.53;;;16.93;100.00
16834;BME280;8533;48.426;10.868;2022-08-19T12:11:29;95890.51;;;16.97;100.00
16834;BME280;8533;48.426;10.868;2022-08-19T12:13:56;95889.16;;;16.99;100.00
16834;BME280;8533;48.426;10.868;2022-08-19T12:16:27;95892.08;;;16.98;100.00
16834;BME280;8533;48.426;10.868;2022-08-19T12:18:55;95894.44;;;16.99;100.00
16834;BME280;8533;48.426;10.868;2022-08-19T12:21:25;95902.11;;;16.98;100.00
16834;BME280;8533;48.426;10.868;2022-08-19T12:23:56;95901.58;;;16.99;100.00
16834;BME280;8533;48.426;10.868;2022-08-19T12:26:26;95894.44;;;16.99;100.00
16834;BME280;8533;48.426;10.868;2022-08-19T12:28:54;95902.36;;;16.99;100.00
16834;BME280;8533;48.426;10.868;2022-08-19T12:31:22;95906.83;;;17.01;100.00
16834;BME280;8533;48.426;10.868;2022-08-19T12:33:49;95909.47;;;17.01;100.00
16834;BME280;8533;48.426;10.868;2022-08-19T12:36:18;95911.77;;;17.05;100.00
16834;BME280;8533;48.426;10.868;2022-08-19T12:38:46;95918.88;;;17.07;100.00
16834;BME280;8533;48.426;10.868;2022-08-19T12:41:15;95919.91;;;17.09;100.00
16834;BME280;8533;48.426;10.868;2022-08-19T12:43:44;95919.84;;;17.11;100.00
16834;BME280;8533;48.426;10.868;2022-08-19T12:46:13;95919.23;;;17.17;100.00
16834;BME280;8533;48.426;10.868;2022-08-19T12:48:40;95921.63;;;17.16;100.00
16834;BME280;8533;48.426;10.868;2022-08-19T12:51:10;95924.45;;;17.20;100.00
16834;BME280;8533;48.426;10.868;2022-08-19T12:53:38;95931.06;;;17.20;100.00
16834;BME280;8533;48.426;10.868;2022-08-19T12:56:08;95927.85;;;17.23;100.00
16834;BME280;8533;48.426;10.868;2022-08-19T12:58:36;95935.46;;;17.27;100.00
16834;BME280;8533;48.426;10.868;2022-08-19T13:01:14;95942.10;;;17.24;100.00
16834;BME280;8533;48.426;10.868;2022-08-19T13:03:37;95942.29;;;17.28;100.00
16834;BME280;8533;48.426;10.868;2022-08-19T13:06:05;95946.86;;;17.25;100.00
16834;BME280;8533;48.426;10.868;2022-08-19T13:08:32;95949.75;;;17.26;100.00